sensor_id;sensor_type;location;lat;lon;timestamp;temperature;humidity
21676;DHT22;10999;51.332;9.458;2024-01-30T00:00:18;4.80;84.10
21676;DHT22;10999;51.332;9.458;2024-01-30T00:02:44;4.70;84.80
21676;DHT22;10999;51.332;9.458;2024-01-30T00:05:12;4.70;85.20
21676;DHT22;10999;51.332;9.458;2024-01-30T00:07:39;4.60;85.60
21676;DHT22;10999;51.332;9.458;2024-01-30T00:10:06;4.60;85.60
21676;DHT22;10999;51.332;9.458;2024-01-30T00:12:33;4.60;85.80
21676;DHT22;10999;51.332;9.458;2024-01-30T00:15:00;4.60;86.10
21676;DHT22;10999;51.332;9.458;2024-01-30T00:17:26;4.60;86.00
21676;DHT22;10999;51.332;9.458;2024-01-30T00:19:53;4.60;86.10
21676;DHT22;10999;51.332;9.458;2024-01-30T00:22:20;4.60;86.00
21676;DHT22;10999;51.332;9.458;2024-01-30T00:24:47;4.50;86.10
21676;DHT22;10999;51.332;9.458;2024-01-30T00:27:14;4.50;86.00
21676;DHT22;10999;51.332;9.458;2024-01-30T00:29:41;4.50;86.30
21676;DHT22;10999;51.332;9.458;2024-01-30T00:32:07;4.50;86.30
21676;DHT22;10999;51.332;9.458;2024-01-30T00:34:34;4.40;86.20
21676;DHT22;10999;51.332;9.458;2024-01-30T00:37:01;4.40;86.50
21676;DHT22;10999;51.332;9.458;2024-01-30T00:39:28;4.40;86.60
21676;DHT22;10999;51.332;9.458;2024-01-30T00:41:55;4.30;87.00
21676;DHT22;10999;51.332;9.458;2024-01-30T00:44:21;4.30;87.10
21676;DHT22;10999;51.332;9.458;2024-01-30T00:46:48;4.30;87.20
21676;DHT22;10999;51.332;9.458;2024-01-30T00:49:15;4.20;87.20
21676;DHT22;10999;51.332;9.458;2024-01-30T00:51:42;4.30;87.60
21676;DHT22;10999;51.332;9.458;2024-01-30T00:54:09;4.20;87.40
21676;DHT22;10999;51.332;9.458;2024-01-30T00:56:36;4.20;87.90
21676;DHT22;10999;51.332;9.458;2024-01-30T00:59:02;4.20;88.10
21676;DHT22;10999;51.332;9.458;2024-01-30T01:01:29;4.20;88.10
21676;DHT22;10999;51.332;9.458;2024-01-30T01:03:56;4.20;87.90
21676;DHT22;10999;51.332;9.458;2024-01-30T01:06:24;4.20;87.60
21676;DHT22;10999;51.332;9.458;2024-01-30T01:08:51;4.20;88.20
21676;DHT22;10999;51.332;9.458;2024-01-30T01:11:18;4.20;88.00
21676;DHT22;10999;51.332;9.458;2024-01-30T01:13:45;4.10;88.20
21676;DHT22;10999;51.332;9.458;2024-01-30T01:16:12;4.10;88.80
21676;DHT22;10999;51.332;9.458;2024-01-30T01:18:38;4.10;88.70
21676;DHT22;10999;51.332;9.458;2024-01-30T01:21:05;4.00;88.60
21676;DHT22;10999;51.332;9.458;2024-01-30T01:23:32;4.00;88.90
21676;DHT22;10999;51.332;9.458;2024-01-30T01:25:59;4.00;88.90
21676;DHT22;10999;51.332;9.458;2024-01-30T01:28:27;4.00;88.90
21676;DHT22;10999;51.332;9.458;2024-01-30T01:30:54;3.90;89.50
21676;DHT22;10999;51.332;9.458;2024-01-30T01:33:25;3.90;89.80
21676;DHT22;10999;51.332;9.458;2024-01-30T01:35:52;3.80;89.70
21676;DHT22;10999;51.332;9.458;2024-01-30T01:38:19;3.80;89.80
21676;DHT22;10999;51.332;9.458;2024-01-30T01:40:46;3.80;90.10
21676;DHT22;10999;51.332;9.458;2024-01-30T01:43:13;3.80;90.10
21676;DHT22;10999;51.332;9.458;2024-01-30T01:45:40;3.70;90.20
21676;DHT22;10999;51.332;9.458;2024-01-30T01:48:07;3.70;90.20
21676;DHT22;10999;51.332;9.458;2024-01-30T01:50:35;3.70;90.60
21676;DHT22;10999;51.332;9.458;2024-01-30T01:53:03;3.70;90.80
21676;DHT22;10999;51.332;9.458;2024-01-30T01:55:31;3.70;90.70
21676;DHT22;10999;51.332;9.458;2024-01-30T01:57:59;3.60;90.70
21676;DHT22;10999;51.332;9.458;2024-01-30T02:00:26;3.60;91.20
21676;DHT22;10999;51.332;9.458;2024-01-30T02:02:54;3.60;91.30
21676;DHT22;10999;51.332;9.458;2024-01-30T02:05:21;3.60;91.70
21676;DHT22;10999;51.332;9.458;2024-01-30T02:07:48;3.60;91.70
21676;DHT22;10999;51.332;9.458;2024-01-30T02:10:15;3.60;91.70
21676;DHT22;10999;51.332;9.458;2024-01-30T02:12:42;3.60;91.50
21676;DHT22;10999;51.332;9.458;2024-01-30T02:15:13;3.70;91.30
21676;DHT22;10999;51.332;9.458;2024-01-30T02:17:40;3.60;91.00
21676;DHT22;10999;51.332;9.458;2024-01-30T02:20:07;3.60;91.00
21676;DHT22;10999;51.332;9.458;2024-01-30T02:22:36;3.60;91.20
21676;DHT22;10999;51.332;9.458;2024-01-30T02:25:04;3.50;91.20
21676;DHT22;10999;51.332;9.458;2024-01-30T02:27:31;3.60;91.30
21676;DHT22;10999;51.332;9.458;2024-01-30T02:29:58;3.50;91.30
21676;DHT22;10999;51.332;9.458;2024-01-30T02:32:25;3.50;91.40
21676;DHT22;10999;51.332;9.458;2024-01-30T02:34:51;3.50;91.60
21676;DHT22;10999;51.332;9.458;2024-01-30T02:37:18;3.50;91.60
21676;DHT22;10999;51.332;9.458;2024-01-30T02:39:45;3.50;91.90
21676;DHT22;10999;51.332;9.458;2024-01-30T02:42:12;3.50;91.80
21676;DHT22;10999;51.332;9.458;2024-01-30T02:44:38;3.50;92.20
21676;DHT22;10999;51.332;9.458;2024-01-30T02:47:05;3.50;92.10
21676;DHT22;10999;51.332;9.458;2024-01-30T02:49:32;3.50;92.40
21676;DHT22;10999;51.332;9.458;2024-01-30T02:51:59;3.50;92.80
21676;DHT22;10999;51.332;9.458;2024-01-30T02:54:25;3.50;92.90
21676;DHT22;10999;51.332;9.458;2024-01-30T02:56:52;3.50;92.80
21676;DHT22;10999;51.332;9.458;2024-01-30T02:59:19;3.50;92.90
21676;DHT22;10999;51.332;9.458;2024-01-30T03:01:46;3.50;93.00
21676;DHT22;10999;51.332;9.458;2024-01-30T03:04:13;3.60;93.70
21676;DHT22;10999;51.332;9.458;2024-01-30T03:06:45;3.50;92.90
21676;DHT22;10999;51.332;9.458;2024-01-30T03:09:13;3.60;92.70
21676;DHT22;10999;51.332;9.458;2024-01-30T03:11:40;3.60;92.50
21676;DHT22;10999;51.332;9.458;2024-01-30T03:14:06;3.60;92.70
21676;DHT22;10999;51.332;9.458;2024-01-30T03:16:34;3.60;92.70
21676;DHT22;10999;51.332;9.458;2024-01-30T03:19:01;3.60;92.40
21676;DHT22;10999;51.332;9.458;2024-01-30T03:21:29;3.60;92.40
21676;DHT22;10999;51.332;9.458;2024-01-30T03:23:56;3.60;92.40
21676;DHT22;10999;51.332;9.458;2024-01-30T03:26:22;3.60;92.50
21676;DHT22;10999;51.332;9.458;2024-01-30T03:28:49;3.60;92.50
21676;DHT22;10999;51.332;9.458;2024-01-30T03:31:16;3.60;92.30
21676;DHT22;10999;51.332;9.458;2024-01-30T03:33:43;3.60;92.20
21676;DHT22;10999;51.332;9.458;2024-01-30T03:36:10;3.60;92.20
21676;DHT22;10999;51.332;9.458;2024-01-30T03:38:37;3.70;92.00
21676;DHT22;10999;51.332;9.458;2024-01-30T03:41:07;3.60;91.80
21676;DHT22;10999;51.332;9.458;2024-01-30T03:43:34;3.70;91.70
21676;DHT22;10999;51.332;9.458;2024-01-30T03:46:02;3.60;91.30
21676;DHT22;10999;51.332;9.458;2024-01-30T03:48:29;3.60;91.30
21676;DHT22;10999;51.332;9.458;2024-01-30T03:50:56;3.60;91.10
21676;DHT22;10999;51.332;9.458;2024-01-30T03:53:23;3.60;91.50
21676;DHT22;10999;51.332;9.458;2024-01-30T03:55:49;3.60;91.80
21676;DHT22;10999;51.332;9.458;2024-01-30T03:58:16;3.60;92.00
21676;DHT22;10999;51.332;9.458;2024-01-30T04:00:43;3.60;92.00
21676;DHT22;10999;51.332;9.458;2024-01-30T04:03:11;3.70;92.00
21676;DHT22;10999;51.332;9.458;2024-01-30T04:05:38;3.70;91.80
21676;DHT22;10999;51.332;9.458;2024-01-30T04:08:05;3.80;91.60
21676;DHT22;10999;51.332;9.458;2024-01-30T04:10:31;3.80;91.30
21676;DHT22;10999;51.332;9.458;2024-01-30T04:12:58;3.90;91.00
21676;DHT22;10999;51.332;9.458;2024-01-30T04:15:26;3.90;91.00
21676;DHT22;10999;51.332;9.458;2024-01-30T04:17:53;4.00;90.60
21676;DHT22;10999;51.332;9.458;2024-01-30T04:20:20;3.90;90.20
21676;DHT22;10999;51.332;9.458;2024-01-30T04:22:47;4.00;89.90
21676;DHT22;10999;51.332;9.458;2024-01-30T04:25:14;4.00;89.60
21676;DHT22;10999;51.332;9.458;2024-01-30T04:27:41;4.10;89.40
21676;DHT22;10999;51.332;9.458;2024-01-30T04:30:08;4.10;89.20
21676;DHT22;10999;51.332;9.458;2024-01-30T04:32:35;4.10;88.90
21676;DHT22;10999;51.332;9.458;2024-01-30T04:35:03;4.10;88.70
21676;DHT22;10999;51.332;9.458;2024-01-30T04:37:37;4.00;88.80
21676;DHT22;10999;51.332;9.458;2024-01-30T04:40:05;4.00;88.70
21676;DHT22;10999;51.332;9.458;2024-01-30T04:42:32;4.00;88.90
21676;DHT22;10999;51.332;9.458;2024-01-30T04:44:59;3.90;89.20
21676;DHT22;10999;51.332;9.458;2024-01-30T04:47:25;3.90;89.30
21676;DHT22;10999;51.332;9.458;2024-01-30T04:49:52;3.90;89.40
21676;DHT22;10999;51.332;9.458;2024-01-30T04:52:19;3.90;89.30
21676;DHT22;10999;51.332;9.458;2024-01-30T04:54:47;3.90;89.20
21676;DHT22;10999;51.332;9.458;2024-01-30T04:57:14;4.00;88.90
21676;DHT22;10999;51.332;9.458;2024-01-30T04:59:41;3.90;88.90
21676;DHT22;10999;51.332;9.458;2024-01-30T05:02:07;3.90;88.90
21676;DHT22;10999;51.332;9.458;2024-01-30T05:04:35;3.80;89.00
21676;DHT22;10999;51.332;9.458;2024-01-30T05:07:02;3.80;89.30
21676;DHT22;10999;51.332;9.458;2024-01-30T05:09:28;3.80;89.60
21676;DHT22;10999;51.332;9.458;2024-01-30T05:11:55;3.80;89.80
21676;DHT22;10999;51.332;9.458;2024-01-30T05:14:22;3.80;89.90
21676;DHT22;10999;51.332;9.458;2024-01-30T05:16:49;3.70;90.00
21676;DHT22;10999;51.332;9.458;2024-01-30T05:19:16;3.70;90.30
21676;DHT22;10999;51.332;9.458;2024-01-30T05:21:44;3.70;90.30
21676;DHT22;10999;51.332;9.458;2024-01-30T05:24:11;3.70;90.40
21676;DHT22;10999;51.332;9.458;2024-01-30T05:26:37;3.70;90.40
21676;DHT22;10999;51.332;9.458;2024-01-30T05:29:05;3.70;90.30
21676;DHT22;10999;51.332;9.458;2024-01-30T05:31:33;3.70;90.20
21676;DHT22;10999;51.332;9.458;2024-01-30T05:34:01;3.70;90.40
21676;DHT22;10999;51.332;9.458;2024-01-30T05:36:28;3.70;90.40
21676;DHT22;10999;51.332;9.458;2024-01-30T05:38:56;3.70;90.40
21676;DHT22;10999;51.332;9.458;2024-01-30T05:41:22;3.70;90.40
21676;DHT22;10999;51.332;9.458;2024-01-30T05:43:49;3.60;90.50
21676;DHT22;10999;51.332;9.458;2024-01-30T05:46:16;3.60;90.80
21676;DHT22;10999;51.332;9.458;2024-01-30T05:48:43;3.60;91.00
21676;DHT22;10999;51.332;9.458;2024-01-30T05:51:09;3.60;91.10
21676;DHT22;10999;51.332;9.458;2024-01-30T05:53:36;3.50;91.30
21676;DHT22;10999;51.332;9.458;2024-01-30T05:56:04;3.50;91.30
21676;DHT22;10999;51.332;9.458;2024-01-30T05:58:31;3.50;91.40
21676;DHT22;10999;51.332;9.458;2024-01-30T06:00:57;3.50;91.20
21676;DHT22;10999;51.332;9.458;2024-01-30T06:03:25;3.60;91.10
21676;DHT22;10999;51.332;9.458;2024-01-30T06:05:52;3.60;90.90
21676;DHT22;10999;51.332;9.458;2024-01-30T06:08:19;3.60;90.80
21676;DHT22;10999;51.332;9.458;2024-01-30T06:10:45;3.60;90.80
21676;DHT22;10999;51.332;9.458;2024-01-30T06:13:12;3.60;90.80
21676;DHT22;10999;51.332;9.458;2024-01-30T06:15:39;3.60;90.70
21676;DHT22;10999;51.332;9.458;2024-01-30T06:18:06;3.60;90.60
21676;DHT22;10999;51.332;9.458;2024-01-30T06:20:33;3.60;90.70
21676;DHT22;10999;51.332;9.458;2024-01-30T06:22:59;3.50;90.90
21676;DHT22;10999;51.332;9.458;2024-01-30T06:25:26;3.50;90.90
21676;DHT22;10999;51.332;9.458;2024-01-30T06:27:53;3.50;90.80
21676;DHT22;10999;51.332;9.458;2024-01-30T06:30:20;3.50;90.90
21676;DHT22;10999;51.332;9.458;2024-01-30T06:32:46;3.50;90.70
21676;DHT22;10999;51.332;9.458;2024-01-30T06:35:13;3.50;91.20
21676;DHT22;10999;51.332;9.458;2024-01-30T06:37:40;3.40;91.20
21676;DHT22;10999;51.332;9.458;2024-01-30T06:40:07;3.50;91.70
21676;DHT22;10999;51.332;9.458;2024-01-30T06:42:34;3.50;91.70
21676;DHT22;10999;51.332;9.458;2024-01-30T06:45:01;3.50;91.60
21676;DHT22;10999;51.332;9.458;2024-01-30T06:47:28;3.50;91.60
21676;DHT22;10999;51.332;9.458;2024-01-30T06:49:55;3.50;91.30
21676;DHT22;10999;51.332;9.458;2024-01-30T06:52:22;3.50;91.00
21676;DHT22;10999;51.332;9.458;2024-01-30T06:54:49;3.50;91.00
21676;DHT22;10999;51.332;9.458;2024-01-30T06:57:16;3.50;91.00
21676;DHT22;10999;51.332;9.458;2024-01-30T06:59:43;3.50;91.00
21676;DHT22;10999;51.332;9.458;2024-01-30T07:02:10;3.50;91.00
21676;DHT22;10999;51.332;9.458;2024-01-30T07:04:37;3.50;91.00
21676;DHT22;10999;51.332;9.458;2024-01-30T07:07:11;3.50;91.00
21676;DHT22;10999;51.332;9.458;2024-01-30T07:09:40;3.50;91.00
21676;DHT22;10999;51.332;9.458;2024-01-30T07:12:07;3.50;90.90
21676;DHT22;10999;51.332;9.458;2024-01-30T07:14:34;3.40;91.00
21676;DHT22;10999;51.332;9.458;2024-01-30T07:17:01;3.40;91.10
21676;DHT22;10999;51.332;9.458;2024-01-30T07:19:28;3.40;91.00
21676;DHT22;10999;51.332;9.458;2024-01-30T07:21:55;3.40;90.90
21676;DHT22;10999;51.332;9.458;2024-01-30T07:24:22;3.40;90.80
21676;DHT22;10999;51.332;9.458;2024-01-30T07:26:49;3.40;90.80
21676;DHT22;10999;51.332;9.458;2024-01-30T07:29:15;3.40;90.80
21676;DHT22;10999;51.332;9.458;2024-01-30T07:31:42;3.40;90.90
21676;DHT22;10999;51.332;9.458;2024-01-30T07:34:09;3.30;90.90
21676;DHT22;10999;51.332;9.458;2024-01-30T07:36:36;3.40;91.00
21676;DHT22;10999;51.332;9.458;2024-01-30T07:39:05;3.40;91.00
21676;DHT22;10999;51.332;9.458;2024-01-30T07:41:32;3.40;91.20
21676;DHT22;10999;51.332;9.458;2024-01-30T07:43:59;3.40;91.30
21676;DHT22;10999;51.332;9.458;2024-01-30T07:46:25;3.40;91.30
21676;DHT22;10999;51.332;9.458;2024-01-30T07:48:52;3.40;91.20
21676;DHT22;10999;51.332;9.458;2024-01-30T07:51:21;3.50;91.30
21676;DHT22;10999;51.332;9.458;2024-01-30T07:53:48;3.50;91.20
21676;DHT22;10999;51.332;9.458;2024-01-30T07:56:14;3.50;91.30
21676;DHT22;10999;51.332;9.458;2024-01-30T07:58:42;3.60;91.20
21676;DHT22;10999;51.332;9.458;2024-01-30T08:01:09;3.60;91.10
21676;DHT22;10999;51.332;9.458;2024-01-30T08:03:36;3.60;91.10
21676;DHT22;10999;51.332;9.458;2024-01-30T08:06:03;3.70;91.10
21676;DHT22;10999;51.332;9.458;2024-01-30T08:08:30;3.70;91.10
21676;DHT22;10999;51.332;9.458;2024-01-30T08:10:57;3.80;90.60
21676;DHT22;10999;51.332;9.458;2024-01-30T08:13:24;3.90;90.30
21676;DHT22;10999;51.332;9.458;2024-01-30T08:15:51;3.90;89.90
21676;DHT22;10999;51.332;9.458;2024-01-30T08:18:18;3.90;89.40
21676;DHT22;10999;51.332;9.458;2024-01-30T08:20:45;4.00;89.40
21676;DHT22;10999;51.332;9.458;2024-01-30T08:23:12;4.00;89.00
21676;DHT22;10999;51.332;9.458;2024-01-30T08:25:39;4.00;88.90
21676;DHT22;10999;51.332;9.458;2024-01-30T08:28:05;4.00;89.60
21676;DHT22;10999;51.332;9.458;2024-01-30T08:30:33;4.00;88.80
21676;DHT22;10999;51.332;9.458;2024-01-30T08:33:00;4.00;89.00
21676;DHT22;10999;51.332;9.458;2024-01-30T08:35:27;4.10;88.90
21676;DHT22;10999;51.332;9.458;2024-01-30T08:37:54;4.10;88.90
21676;DHT22;10999;51.332;9.458;2024-01-30T08:40:21;4.10;88.80
21676;DHT22;10999;51.332;9.458;2024-01-30T08:42:48;4.10;88.60
21676;DHT22;10999;51.332;9.458;2024-01-30T08:45:15;4.20;88.60
21676;DHT22;10999;51.332;9.458;2024-01-30T08:47:42;4.20;88.50
21676;DHT22;10999;51.332;9.458;2024-01-30T08:50:09;4.30;88.60
21676;DHT22;10999;51.332;9.458;2024-01-30T08:52:36;4.30;88.00
21676;DHT22;10999;51.332;9.458;2024-01-30T08:55:03;4.30;87.90
21676;DHT22;10999;51.332;9.458;2024-01-30T08:57:31;4.40;87.70
21676;DHT22;10999;51.332;9.458;2024-01-30T08:59:58;4.40;87.60
21676;DHT22;10999;51.332;9.458;2024-01-30T09:02:25;4.40;87.70
21676;DHT22;10999;51.332;9.458;2024-01-30T09:04:52;4.40;87.50
21676;DHT22;10999;51.332;9.458;2024-01-30T09:07:19;4.50;87.50
21676;DHT22;10999;51.332;9.458;2024-01-30T09:09:46;4.50;87.50
21676;DHT22;10999;51.332;9.458;2024-01-30T09:12:13;4.50;87.30
21676;DHT22;10999;51.332;9.458;2024-01-30T09:14:41;4.50;87.70
21676;DHT22;10999;51.332;9.458;2024-01-30T09:17:08;4.60;88.00
21676;DHT22;10999;51.332;9.458;2024-01-30T09:19:35;4.60;87.50
21676;DHT22;10999;51.332;9.458;2024-01-30T09:22:02;4.60;87.70
21676;DHT22;10999;51.332;9.458;2024-01-30T09:24:30;4.70;87.90
21676;DHT22;10999;51.332;9.458;2024-01-30T09:26:56;4.80;87.80
21676;DHT22;10999;51.332;9.458;2024-01-30T09:29:23;4.90;87.60
21676;DHT22;10999;51.332;9.458;2024-01-30T09:31:50;5.00;86.80
21676;DHT22;10999;51.332;9.458;2024-01-30T09:34:17;5.10;86.80
21676;DHT22;10999;51.332;9.458;2024-01-30T09:36:44;5.10;86.10
21676;DHT22;10999;51.332;9.458;2024-01-30T09:39:11;5.10;86.30
21676;DHT22;10999;51.332;9.458;2024-01-30T09:41:47;5.10;86.30
21676;DHT22;10999;51.332;9.458;2024-01-30T09:44:16;5.20;86.50
21676;DHT22;10999;51.332;9.458;2024-01-30T09:46:46;5.30;86.60
21676;DHT22;10999;51.332;9.458;2024-01-30T09:49:13;5.30;86.30
21676;DHT22;10999;51.332;9.458;2024-01-30T09:51:44;5.30;86.60
21676;DHT22;10999;51.332;9.458;2024-01-30T09:54:13;5.40;86.40
21676;DHT22;10999;51.332;9.458;2024-01-30T09:56:40;5.40;86.00
21676;DHT22;10999;51.332;9.458;2024-01-30T09:59:07;5.50;85.80
21676;DHT22;10999;51.332;9.458;2024-01-30T10:01:35;5.60;85.90
21676;DHT22;10999;51.332;9.458;2024-01-30T10:04:04;5.60;85.70
21676;DHT22;10999;51.332;9.458;2024-01-30T10:06:31;5.60;85.20
21676;DHT22;10999;51.332;9.458;2024-01-30T10:08:58;5.70;84.90
21676;DHT22;10999;51.332;9.458;2024-01-30T10:11:24;5.80;84.50
21676;DHT22;10999;51.332;9.458;2024-01-30T10:13:51;5.90;84.50
21676;DHT22;10999;51.332;9.458;2024-01-30T10:16:18;5.90;83.80
21676;DHT22;10999;51.332;9.458;2024-01-30T10:18:45;6.00;83.70
21676;DHT22;10999;51.332;9.458;2024-01-30T10:21:12;6.00;83.10
21676;DHT22;10999;51.332;9.458;2024-01-30T10:23:39;6.10;83.30
21676;DHT22;10999;51.332;9.458;2024-01-30T10:26:07;6.10;83.20
21676;DHT22;10999;51.332;9.458;2024-01-30T10:28:34;6.10;82.50
21676;DHT22;10999;51.332;9.458;2024-01-30T10:31:02;6.20;83.00
21676;DHT22;10999;51.332;9.458;2024-01-30T10:33:32;6.20;82.30
21676;DHT22;10999;51.332;9.458;2024-01-30T10:36:04;6.20;82.90
21676;DHT22;10999;51.332;9.458;2024-01-30T10:38:32;6.30;81.70
21676;DHT22;10999;51.332;9.458;2024-01-30T10:41:02;6.30;81.00
21676;DHT22;10999;51.332;9.458;2024-01-30T10:43:35;6.40;81.10
21676;DHT22;10999;51.332;9.458;2024-01-30T10:46:18;6.40;80.90
21676;DHT22;10999;51.332;9.458;2024-01-30T10:48:51;6.50;80.20
21676;DHT22;10999;51.332;9.458;2024-01-30T10:51:22;6.50;79.60
21676;DHT22;10999;51.332;9.458;2024-01-30T10:53:49;6.60;80.30
21676;DHT22;10999;51.332;9.458;2024-01-30T10:56:17;6.60;79.00
21676;DHT22;10999;51.332;9.458;2024-01-30T10:58:44;6.60;79.20
21676;DHT22;10999;51.332;9.458;2024-01-30T11:01:11;6.70;78.40
21676;DHT22;10999;51.332;9.458;2024-01-30T11:03:39;6.70;77.60
21676;DHT22;10999;51.332;9.458;2024-01-30T11:06:11;6.70;77.40
21676;DHT22;10999;51.332;9.458;2024-01-30T11:08:38;6.70;76.90
21676;DHT22;10999;51.332;9.458;2024-01-30T11:11:09;6.80;77.20
21676;DHT22;10999;51.332;9.458;2024-01-30T11:13:36;6.80;77.20
21676;DHT22;10999;51.332;9.458;2024-01-30T11:16:04;6.80;77.10
21676;DHT22;10999;51.332;9.458;2024-01-30T11:18:33;6.80;76.70
21676;DHT22;10999;51.332;9.458;2024-01-30T11:21:00;6.80;76.70
21676;DHT22;10999;51.332;9.458;2024-01-30T11:23:28;6.80;76.70
21676;DHT22;10999;51.332;9.458;2024-01-30T11:25:56;6.80;77.30
21676;DHT22;10999;51.332;9.458;2024-01-30T11:28:23;6.80;77.10
21676;DHT22;10999;51.332;9.458;2024-01-30T11:30:51;6.80;77.30
21676;DHT22;10999;51.332;9.458;2024-01-30T11:33:31;6.80;77.80
21676;DHT22;10999;51.332;9.458;2024-01-30T11:36:01;6.90;77.50
21676;DHT22;10999;51.332;9.458;2024-01-30T11:38:28;6.90;77.70
21676;DHT22;10999;51.332;9.458;2024-01-30T11:40:55;7.00;78.10
21676;DHT22;10999;51.332;9.458;2024-01-30T11:43:25;7.00;77.90
21676;DHT22;10999;51.332;9.458;2024-01-30T11:45:52;7.00;77.30
21676;DHT22;10999;51.332;9.458;2024-01-30T11:48:19;7.10;78.30
21676;DHT22;10999;51.332;9.458;2024-01-30T11:50:46;7.20;77.30
21676;DHT22;10999;51.332;9.458;2024-01-30T11:53:13;7.20;76.50
21676;DHT22;10999;51.332;9.458;2024-01-30T11:55:40;7.30;76.10
21676;DHT22;10999;51.332;9.458;2024-01-30T11:58:07;7.40;75.80
21676;DHT22;10999;51.332;9.458;2024-01-30T12:00:34;7.50;75.90
21676;DHT22;10999;51.332;9.458;2024-01-30T12:03:02;7.60;74.60
21676;DHT22;10999;51.332;9.458;2024-01-30T12:05:30;7.80;73.10
21676;DHT22;10999;51.332;9.458;2024-01-30T12:07:57;8.00;73.00
21676;DHT22;10999;51.332;9.458;2024-01-30T12:10:28;8.10;71.00
21676;DHT22;10999;51.332;9.458;2024-01-30T12:12:57;8.20;70.00
21676;DHT22;10999;51.332;9.458;2024-01-30T12:15:26;8.20;69.90
21676;DHT22;10999;51.332;9.458;2024-01-30T12:17:52;8.20;70.00
21676;DHT22;10999;51.332;9.458;2024-01-30T12:20:29;8.20;69.50
21676;DHT22;10999;51.332;9.458;2024-01-30T12:22:56;8.30;69.30
21676;DHT22;10999;51.332;9.458;2024-01-30T12:25:23;8.20;69.00
21676;DHT22;10999;51.332;9.458;2024-01-30T12:27:50;8.30;70.00
21676;DHT22;10999;51.332;9.458;2024-01-30T12:30:20;8.40;69.50
21676;DHT22;10999;51.332;9.458;2024-01-30T12:32:50;8.50;68.10
21676;DHT22;10999;51.332;9.458;2024-01-30T12:35:18;8.60;68.30
21676;DHT22;10999;51.332;9.458;2024-01-30T12:37:46;8.60;67.40
21676;DHT22;10999;51.332;9.458;2024-01-30T12:40:14;8.80;68.50
21676;DHT22;10999;51.332;9.458;2024-01-30T12:42:43;8.80;67.50
21676;DHT22;10999;51.332;9.458;2024-01-30T12:45:10;8.80;66.80
21676;DHT22;10999;51.332;9.458;2024-01-30T12:47:37;8.90;67.00
21676;DHT22;10999;51.332;9.458;2024-01-30T12:50:04;9.00;66.60
21676;DHT22;10999;51.332;9.458;2024-01-30T12:52:31;9.10;66.80
21676;DHT22;10999;51.332;9.458;2024-01-30T12:54:58;9.20;66.20
21676;DHT22;10999;51.332;9.458;2024-01-30T12:57:25;9.20;64.00
21676;DHT22;10999;51.332;9.458;2024-01-30T12:59:52;9.20;64.20
21676;DHT22;10999;51.332;9.458;2024-01-30T13:02:18;9.20;64.40
21676;DHT22;10999;51.332;9.458;2024-01-30T13:04:45;9.30;64.60
21676;DHT22;10999;51.332;9.458;2024-01-30T13:07:15;9.40;64.30
21676;DHT22;10999;51.332;9.458;2024-01-30T13:09:42;9.60;63.50
21676;DHT22;10999;51.332;9.458;2024-01-30T13:12:09;9.60;63.30
21676;DHT22;10999;51.332;9.458;2024-01-30T13:14:36;9.70;62.90
21676;DHT22;10999;51.332;9.458;2024-01-30T13:17:03;9.60;62.40
21676;DHT22;10999;51.332;9.458;2024-01-30T13:19:29;9.60;61.50
21676;DHT22;10999;51.332;9.458;2024-01-30T13:21:56;9.60;62.60
21676;DHT22;10999;51.332;9.458;2024-01-30T13:24:23;9.60;63.30
21676;DHT22;10999;51.332;9.458;2024-01-30T13:26:50;9.60;62.40
21676;DHT22;10999;51.332;9.458;2024-01-30T13:29:18;9.40;63.70
21676;DHT22;10999;51.332;9.458;2024-01-30T13:31:44;9.30;63.60
21676;DHT22;10999;51.332;9.458;2024-01-30T13:34:12;9.40;64.20
21676;DHT22;10999;51.332;9.458;2024-01-30T13:36:41;9.40;64.30
21676;DHT22;10999;51.332;9.458;2024-01-30T13:39:08;9.40;63.80
21676;DHT22;10999;51.332;9.458;2024-01-30T13:41:36;9.30;64.10
21676;DHT22;10999;51.332;9.458;2024-01-30T13:44:04;9.20;64.80
21676;DHT22;10999;51.332;9.458;2024-01-30T13:46:31;9.20;65.50
21676;DHT22;10999;51.332;9.458;2024-01-30T13:48:58;9.10;65.70
21676;DHT22;10999;51.332;9.458;2024-01-30T13:51:25;9.10;66.20
21676;DHT22;10999;51.332;9.458;2024-01-30T13:53:52;9.10;67.10
21676;DHT22;10999;51.332;9.458;2024-01-30T13:56:20;9.10;67.00
21676;DHT22;10999;51.332;9.458;2024-01-30T13:58:50;9.00;67.00
21676;DHT22;10999;51.332;9.458;2024-01-30T14:01:17;9.00;67.50
21676;DHT22;10999;51.332;9.458;2024-01-30T14:03:44;9.00;67.70
21676;DHT22;10999;51.332;9.458;2024-01-30T14:06:12;9.00;68.00
21676;DHT22;10999;51.332;9.458;2024-01-30T14:08:39;9.00;68.50
21676;DHT22;10999;51.332;9.458;2024-01-30T14:11:09;9.00;67.90
21676;DHT22;10999;51.332;9.458;2024-01-30T14:13:36;8.90;68.20
21676;DHT22;10999;51.332;9.458;2024-01-30T14:16:03;8.90;68.40
21676;DHT22;10999;51.332;9.458;2024-01-30T14:18:32;8.90;68.80
21676;DHT22;10999;51.332;9.458;2024-01-30T14:20:58;8.90;69.30
21676;DHT22;10999;51.332;9.458;2024-01-30T14:23:25;8.90;69.40
21676;DHT22;10999;51.332;9.458;2024-01-30T14:25:52;8.90;69.40
21676;DHT22;10999;51.332;9.458;2024-01-30T14:28:19;8.90;69.50
21676;DHT22;10999;51.332;9.458;2024-01-30T14:30:46;8.90;70.00
21676;DHT22;10999;51.332;9.458;2024-01-30T14:33:14;8.90;70.00
21676;DHT22;10999;51.332;9.458;2024-01-30T14:35:41;8.90;70.20
21676;DHT22;10999;51.332;9.458;2024-01-30T14:38:08;8.90;71.00
21676;DHT22;10999;51.332;9.458;2024-01-30T14:40:36;8.80;71.70
21676;DHT22;10999;51.332;9.458;2024-01-30T14:43:03;8.90;71.90
21676;DHT22;10999;51.332;9.458;2024-01-30T14:45:30;8.80;71.30
21676;DHT22;10999;51.332;9.458;2024-01-30T14:47:59;8.80;72.70
21676;DHT22;10999;51.332;9.458;2024-01-30T14:50:26;8.70;72.30
21676;DHT22;10999;51.332;9.458;2024-01-30T14:52:55;8.70;72.50
21676;DHT22;10999;51.332;9.458;2024-01-30T14:55:21;8.70;73.00
21676;DHT22;10999;51.332;9.458;2024-01-30T14:57:48;8.70;72.90
21676;DHT22;10999;51.332;9.458;2024-01-30T15:00:16;8.70;73.30
21676;DHT22;10999;51.332;9.458;2024-01-30T15:02:43;8.70;73.60
21676;DHT22;10999;51.332;9.458;2024-01-30T15:05:11;8.70;74.30
21676;DHT22;10999;51.332;9.458;2024-01-30T15:07:39;8.70;74.20
21676;DHT22;10999;51.332;9.458;2024-01-30T15:10:10;8.70;74.60
21676;DHT22;10999;51.332;9.458;2024-01-30T15:12:37;8.60;74.50
21676;DHT22;10999;51.332;9.458;2024-01-30T15:15:07;8.70;75.00
21676;DHT22;10999;51.332;9.458;2024-01-30T15:17:35;8.60;75.30
21676;DHT22;10999;51.332;9.458;2024-01-30T15:20:02;8.60;75.40
21676;DHT22;10999;51.332;9.458;2024-01-30T15:22:31;8.60;75.50
21676;DHT22;10999;51.332;9.458;2024-01-30T15:24:58;8.60;75.80
21676;DHT22;10999;51.332;9.458;2024-01-30T15:27:25;8.60;76.20
21676;DHT22;10999;51.332;9.458;2024-01-30T15:29:55;8.50;76.40
21676;DHT22;10999;51.332;9.458;2024-01-30T15:32:22;8.50;76.40
21676;DHT22;10999;51.332;9.458;2024-01-30T15:34:49;8.50;76.50
21676;DHT22;10999;51.332;9.458;2024-01-30T15:37:16;8.50;76.50
21676;DHT22;10999;51.332;9.458;2024-01-30T15:39:42;8.50;76.70
21676;DHT22;10999;51.332;9.458;2024-01-30T15:42:09;8.40;77.00
21676;DHT22;10999;51.332;9.458;2024-01-30T15:44:36;8.40;77.10